sensor_id;sensor_type;location;lat;lon;timestamp;P1;durP1;ratioP1;P2;durP2;ratioP2
11473;SDS011;5793;52.238;13.438;2023-07-16T00:00:23;7.78;;;5.55;;
11473;SDS011;5793;52.238;13.438;2023-07-16T00:02:50;6.82;;;4.75;;
11473;SDS011;5793;52.238;13.438;2023-07-16T00:05:18;6.18;;;5.15;;
11473;SDS011;5793;52.238;13.438;2023-07-16T00:07:46;6.03;;;5.53;;
11473;SDS011;5793;52.238;13.438;2023-07-16T00:10:15;6.25;;;5.72;;
11473;SDS011;5793;52.238;13.438;2023-07-16T00:12:43;6.90;;;5.75;;
11473;SDS011;5793;52.238;13.438;2023-07-16T00:15:11;7.50;;;5.80;;
11473;SDS011;5793;52.238;13.438;2023-07-16T00:17:39;6.72;;;5.45;;
11473;SDS011;5793;52.238;13.438;2023-07-16T00:20:07;7.00;;;5.65;;
11473;SDS011;5793;52.238;13.438;2023-07-16T00:22:35;6.28;;;5.68;;
11473;SDS011;5793;52.238;13.438;2023-07-16T00:25:05;7.68;;;5.88;;
11473;SDS011;5793;52.238;13.438;2023-07-16T00:27:35;6.80;;;5.95;;
11473;SDS011;5793;52.238;13.438;2023-07-16T00:30:03;7.68;;;5.97;;
11473;SDS011;5793;52.238;13.438;2023-07-16T00:32:32;7.10;;;6.50;;
11473;SDS011;5793;52.238;13.438;2023-07-16T00:35:00;7.45;;;6.70;;
11473;SDS011;5793;52.238;13.438;2023-07-16T00:37:28;7.57;;;6.88;;
11473;SDS011;5793;52.238;13.438;2023-07-16T00:39:56;7.05;;;6.35;;
11473;SDS011;5793;52.238;13.438;2023-07-16T00:42:23;7.28;;;6.15;;
11473;SDS011;5793;52.238;13.438;2023-07-16T00:44:52;8.77;;;7.25;;
11473;SDS011;5793;52.238;13.438;2023-07-16T00:47:21;7.38;;;6.53;;
11473;SDS011;5793;52.238;13.438;2023-07-16T00:49:49;7.18;;;6.47;;
11473;SDS011;5793;52.238;13.438;2023-07-16T00:52:18;7.75;;;6.90;;
11473;SDS011;5793;52.238;13.438;2023-07-16T00:54:47;8.25;;;7.28;;
11473;SDS011;5793;52.238;13.438;2023-07-16T00:57:16;12.85;;;10.25;;
11473;SDS011;5793;52.238;13.438;2023-07-16T00:59:44;15.85;;;14.07;;
11473;SDS011;5793;52.238;13.438;2023-07-16T01:02:13;19.05;;;15.93;;
11473;SDS011;5793;52.238;13.438;2023-07-16T01:04:41;20.67;;;15.63;;
11473;SDS011;5793;52.238;13.438;2023-07-16T01:07:10;15.50;;;11.43;;
11473;SDS011;5793;52.238;13.438;2023-07-16T01:09:41;12.82;;;9.48;;
11473;SDS011;5793;52.238;13.438;2023-07-16T01:12:10;10.70;;;9.57;;
11473;SDS011;5793;52.238;13.438;2023-07-16T01:14:39;9.93;;;8.20;;
11473;SDS011;5793;52.238;13.438;2023-07-16T01:17:08;9.75;;;7.13;;
11473;SDS011;5793;52.238;13.438;2023-07-16T01:19:37;7.70;;;6.70;;
11473;SDS011;5793;52.238;13.438;2023-07-16T01:22:16;10.88;;;6.88;;
11473;SDS011;5793;52.238;13.438;2023-07-16T01:25:10;7.22;;;6.38;;
11473;SDS011;5793;52.238;13.438;2023-07-16T01:28:06;5.93;;;5.40;;
11473;SDS011;5793;52.238;13.438;2023-07-16T01:30:50;6.78;;;5.50;;
11473;SDS011;5793;52.238;13.438;2023-07-16T01:33:19;7.45;;;5.20;;
11473;SDS011;5793;52.238;13.438;2023-07-16T01:35:48;6.28;;;4.50;;
11473;SDS011;5793;52.238;13.438;2023-07-16T01:38:17;5.57;;;4.45;;
11473;SDS011;5793;52.238;13.438;2023-07-16T01:40:47;5.18;;;4.50;;
11473;SDS011;5793;52.238;13.438;2023-07-16T01:43:15;5.38;;;4.50;;
11473;SDS011;5793;52.238;13.438;2023-07-16T01:45:42;5.47;;;4.50;;
11473;SDS011;5793;52.238;13.438;2023-07-16T01:48:16;6.97;;;4.40;;
11473;SDS011;5793;52.238;13.438;2023-07-16T01:50:56;5.22;;;4.40;;
11473;SDS011;5793;52.238;13.438;2023-07-16T01:53:24;7.13;;;4.43;;
11473;SDS011;5793;52.238;13.438;2023-07-16T01:55:51;4.95;;;4.45;;
11473;SDS011;5793;52.238;13.438;2023-07-16T01:58:19;5.97;;;4.68;;
11473;SDS011;5793;52.238;13.438;2023-07-16T02:00:48;5.53;;;4.10;;
11473;SDS011;5793;52.238;13.438;2023-07-16T02:03:18;4.97;;;4.18;;
11473;SDS011;5793;52.238;13.438;2023-07-16T02:05:47;11.32;;;4.43;;
11473;SDS011;5793;52.238;13.438;2023-07-16T02:08:16;7.60;;;4.55;;
11473;SDS011;5793;52.238;13.438;2023-07-16T02:10:44;5.63;;;4.43;;
11473;SDS011;5793;52.238;13.438;2023-07-16T02:13:14;5.15;;;4.65;;
11473;SDS011;5793;52.238;13.438;2023-07-16T02:15:42;6.00;;;4.65;;
11473;SDS011;5793;52.238;13.438;2023-07-16T02:18:10;5.75;;;5.10;;
11473;SDS011;5793;52.238;13.438;2023-07-16T02:20:39;6.50;;;4.80;;
11473;SDS011;5793;52.238;13.438;2023-07-16T02:23:07;6.30;;;5.07;;
11473;SDS011;5793;52.238;13.438;2023-07-16T02:25:35;6.60;;;5.18;;
11473;SDS011;5793;52.238;13.438;2023-07-16T02:28:03;5.68;;;5.03;;
11473;SDS011;5793;52.238;13.438;2023-07-16T02:30:31;6.68;;;4.90;;
11473;SDS011;5793;52.238;13.438;2023-07-16T02:32:58;8.05;;;5.13;;
11473;SDS011;5793;52.238;13.438;2023-07-16T02:35:26;9.30;;;5.90;;
11473;SDS011;5793;52.238;13.438;2023-07-16T02:37:55;7.50;;;5.53;;
11473;SDS011;5793;52.238;13.438;2023-07-16T02:40:23;9.35;;;5.30;;
11473;SDS011;5793;52.238;13.438;2023-07-16T02:42:51;7.07;;;5.55;;
11473;SDS011;5793;52.238;13.438;2023-07-16T02:45:19;8.38;;;5.88;;
11473;SDS011;5793;52.238;13.438;2023-07-16T02:47:47;6.35;;;5.72;;
11473;SDS011;5793;52.238;13.438;2023-07-16T02:50:14;6.18;;;5.57;;
11473;SDS011;5793;52.238;13.438;2023-07-16T02:52:42;6.70;;;5.68;;
11473;SDS011;5793;52.238;13.438;2023-07-16T02:55:12;6.40;;;5.30;;
11473;SDS011;5793;52.238;13.438;2023-07-16T02:57:39;8.15;;;5.55;;
11473;SDS011;5793;52.238;13.438;2023-07-16T03:00:07;8.90;;;6.10;;
11473;SDS011;5793;52.238;13.438;2023-07-16T03:02:36;9.27;;;6.18;;
11473;SDS011;5793;52.238;13.438;2023-07-16T03:05:04;8.35;;;5.32;;
11473;SDS011;5793;52.238;13.438;2023-07-16T03:07:32;6.45;;;5.85;;
11473;SDS011;5793;52.238;13.438;2023-07-16T03:10:00;7.47;;;5.70;;
11473;SDS011;5793;52.238;13.438;2023-07-16T03:12:29;6.60;;;5.07;;
11473;SDS011;5793;52.238;13.438;2023-07-16T03:14:57;6.10;;;5.25;;
11473;SDS011;5793;52.238;13.438;2023-07-16T03:17:25;7.25;;;5.32;;
11473;SDS011;5793;52.238;13.438;2023-07-16T03:19:52;6.40;;;5.30;;
11473;SDS011;5793;52.238;13.438;2023-07-16T03:22:20;8.48;;;5.72;;
11473;SDS011;5793;52.238;13.438;2023-07-16T03:24:48;8.57;;;5.50;;
11473;SDS011;5793;52.238;13.438;2023-07-16T03:27:16;6.25;;;5.63;;
11473;SDS011;5793;52.238;13.438;2023-07-16T03:29:46;5.70;;;5.07;;
11473;SDS011;5793;52.238;13.438;2023-07-16T03:32:14;7.43;;;6.03;;
11473;SDS011;5793;52.238;13.438;2023-07-16T03:34:42;9.60;;;5.97;;
11473;SDS011;5793;52.238;13.438;2023-07-16T03:37:10;11.07;;;6.70;;
11473;SDS011;5793;52.238;13.438;2023-07-16T03:39:37;8.90;;;6.40;;
11473;SDS011;5793;52.238;13.438;2023-07-16T03:42:05;7.30;;;5.40;;
11473;SDS011;5793;52.238;13.438;2023-07-16T03:44:33;8.45;;;6.80;;
11473;SDS011;5793;52.238;13.438;2023-07-16T03:47:03;7.38;;;6.15;;
11473;SDS011;5793;52.238;13.438;2023-07-16T03:49:31;5.78;;;5.18;;
11473;SDS011;5793;52.238;13.438;2023-07-16T03:51:59;7.97;;;6.00;;
11473;SDS011;5793;52.238;13.438;2023-07-16T03:54:26;6.88;;;5.82;;
11473;SDS011;5793;52.238;13.438;2023-07-16T03:56:54;6.00;;;5.40;;
11473;SDS011;5793;52.238;13.438;2023-07-16T03:59:22;7.10;;;5.78;;
11473;SDS011;5793;52.238;13.438;2023-07-16T04:01:50;7.40;;;5.63;;
11473;SDS011;5793;52.238;13.438;2023-07-16T04:04:19;7.05;;;6.07;;
11473;SDS011;5793;52.238;13.438;2023-07-16T04:06:47;7.57;;;6.00;;
11473;SDS011;5793;52.238;13.438;2023-07-16T04:09:14;6.88;;;5.90;;
11473;SDS011;5793;52.238;13.438;2023-07-16T04:11:42;9.60;;;6.05;;
11473;SDS011;5793;52.238;13.438;2023-07-16T04:14:10;8.02;;;5.45;;
11473;SDS011;5793;52.238;13.438;2023-07-16T04:16:38;7.40;;;5.75;;
11473;SDS011;5793;52.238;13.438;2023-07-16T04:19:06;6.95;;;5.72;;
11473;SDS011;5793;52.238;13.438;2023-07-16T04:21:35;6.60;;;6.00;;
11473;SDS011;5793;52.238;13.438;2023-07-16T04:24:03;5.88;;;5.05;;
11473;SDS011;5793;52.238;13.438;2023-07-16T04:26:32;6.28;;;5.20;;
11473;SDS011;5793;52.238;13.438;2023-07-16T04:29:00;6.95;;;5.22;;
11473;SDS011;5793;52.238;13.438;2023-07-16T04:31:27;5.25;;;4.68;;
11473;SDS011;5793;52.238;13.438;2023-07-16T04:33:55;5.53;;;4.78;;
11473;SDS011;5793;52.238;13.438;2023-07-16T04:36:23;7.07;;;4.93;;
11473;SDS011;5793;52.238;13.438;2023-07-16T04:38:53;4.85;;;4.45;;
11473;SDS011;5793;52.238;13.438;2023-07-16T04:41:21;6.38;;;4.45;;
11473;SDS011;5793;52.238;13.438;2023-07-16T04:43:49;6.00;;;4.45;;
11473;SDS011;5793;52.238;13.438;2023-07-16T04:46:16;5.20;;;4.47;;
11473;SDS011;5793;52.238;13.438;2023-07-16T04:48:45;4.68;;;4.25;;
11473;SDS011;5793;52.238;13.438;2023-07-16T04:51:12;6.20;;;4.80;;
11473;SDS011;5793;52.238;13.438;2023-07-16T04:53:40;4.75;;;4.03;;
11473;SDS011;5793;52.238;13.438;2023-07-16T04:56:12;5.95;;;4.35;;
11473;SDS011;5793;52.238;13.438;2023-07-16T04:58:41;4.68;;;4.28;;
11473;SDS011;5793;52.238;13.438;2023-07-16T05:01:09;4.78;;;3.83;;
11473;SDS011;5793;52.238;13.438;2023-07-16T05:03:37;5.45;;;4.35;;
11473;SDS011;5793;52.238;13.438;2023-07-16T05:06:05;4.40;;;4.00;;
11473;SDS011;5793;52.238;13.438;2023-07-16T05:08:33;6.75;;;4.40;;
11473;SDS011;5793;52.238;13.438;2023-07-16T05:11:01;4.28;;;3.88;;
11473;SDS011;5793;52.238;13.438;2023-07-16T05:13:30;5.05;;;4.30;;
11473;SDS011;5793;52.238;13.438;2023-07-16T05:15:58;4.78;;;3.95;;
11473;SDS011;5793;52.238;13.438;2023-07-16T05:18:25;5.72;;;4.30;;
11473;SDS011;5793;52.238;13.438;2023-07-16T05:20:53;5.55;;;4.57;;
11473;SDS011;5793;52.238;13.438;2023-07-16T05:23:21;4.70;;;4.00;;
11473;SDS011;5793;52.238;13.438;2023-07-16T05:25:49;4.50;;;3.92;;
11473;SDS011;5793;52.238;13.438;2023-07-16T05:28:17;4.15;;;3.75;;
11473;SDS011;5793;52.238;13.438;2023-07-16T05:30:47;6.82;;;4.10;;
11473;SDS011;5793;52.238;13.438;2023-07-16T05:33:14;5.70;;;4.30;;
11473;SDS011;5793;52.238;13.438;2023-07-16T05:35:42;5.13;;;4.00;;
11473;SDS011;5793;52.238;13.438;2023-07-16T05:38:15;5.47;;;4.43;;
11473;SDS011;5793;52.238;13.438;2023-07-16T05:40:43;7.75;;;4.00;;
11473;SDS011;5793;52.238;13.438;2023-07-16T05:43:11;7.20;;;5.10;;
11473;SDS011;5793;52.238;13.438;2023-07-16T05:45:39;4.88;;;4.07;;
11473;SDS011;5793;52.238;13.438;2023-07-16T05:48:08;6.20;;;4.10;;
11473;SDS011;5793;52.238;13.438;2023-07-16T05:50:36;4.55;;;4.00;;
11473;SDS011;5793;52.238;13.438;2023-07-16T05:53:04;5.07;;;4.03;;
11473;SDS011;5793;52.238;13.438;2023-07-16T05:55:32;5.57;;;4.13;;
11473;SDS011;5793;52.238;13.438;2023-07-16T05:58:00;4.80;;;3.70;;
11473;SDS011;5793;52.238;13.438;2023-07-16T06:00:27;4.55;;;3.53;;
11473;SDS011;5793;52.238;13.438;2023-07-16T06:02:55;5.80;;;3.75;;
11473;SDS011;5793;52.238;13.438;2023-07-16T06:05:24;6.70;;;3.58;;
11473;SDS011;5793;52.238;13.438;2023-07-16T06:07:52;4.00;;;3.40;;
11473;SDS011;5793;52.238;13.438;2023-07-16T06:10:20;5.60;;;3.38;;
11473;SDS011;5793;52.238;13.438;2023-07-16T06:12:48;5.47;;;3.33;;
11473;SDS011;5793;52.238;13.438;2023-07-16T06:15:16;5.50;;;3.97;;
11473;SDS011;5793;52.238;13.438;2023-07-16T06:17:44;7.28;;;3.72;;
11473;SDS011;5793;52.238;13.438;2023-07-16T06:20:11;4.68;;;3.63;;
11473;SDS011;5793;52.238;13.438;2023-07-16T06:22:41;4.18;;;3.15;;
11473;SDS011;5793;52.238;13.438;2023-07-16T06:25:09;4.70;;;3.35;;
11473;SDS011;5793;52.238;13.438;2023-07-16T06:27:37;4.68;;;3.55;;
11473;SDS011;5793;52.238;13.438;2023-07-16T06:30:05;5.65;;;3.40;;
11473;SDS011;5793;52.238;13.438;2023-07-16T06:32:34;7.03;;;3.40;;
11473;SDS011;5793;52.238;13.438;2023-07-16T06:35:02;4.03;;;3.20;;
11473;SDS011;5793;52.238;13.438;2023-07-16T06:37:30;8.52;;;3.45;;
11473;SDS011;5793;52.238;13.438;2023-07-16T06:39:59;4.57;;;3.58;;
11473;SDS011;5793;52.238;13.438;2023-07-16T06:42:27;3.70;;;3.30;;
11473;SDS011;5793;52.238;13.438;2023-07-16T06:44:54;4.38;;;3.28;;
11473;SDS011;5793;52.238;13.438;2023-07-16T06:47:22;6.55;;;3.63;;
11473;SDS011;5793;52.238;13.438;2023-07-16T06:49:50;4.13;;;3.00;;
11473;SDS011;5793;52.238;13.438;2023-07-16T06:52:18;4.45;;;3.80;;
11473;SDS011;5793;52.238;13.438;2023-07-16T06:54:46;3.58;;;3.08;;
11473;SDS011;5793;52.238;13.438;2023-07-16T06:57:15;5.40;;;3.20;;
11473;SDS011;5793;52.238;13.438;2023-07-16T06:59:43;5.28;;;3.45;;
11473;SDS011;5793;52.238;13.438;2023-07-16T07:02:11;4.57;;;3.33;;
11473;SDS011;5793;52.238;13.438;2023-07-16T07:04:39;4.95;;;3.00;;
11473;SDS011;5793;52.238;13.438;2023-07-16T07:07:07;5.28;;;3.30;;
11473;SDS011;5793;52.238;13.438;2023-07-16T07:09:35;5.50;;;3.28;;
11473;SDS011;5793;52.238;13.438;2023-07-16T07:12:03;4.22;;;3.10;;
11473;SDS011;5793;52.238;13.438;2023-07-16T07:14:33;4.10;;;2.88;;
11473;SDS011;5793;52.238;13.438;2023-07-16T07:17:01;4.88;;;3.17;;
11473;SDS011;5793;52.238;13.438;2023-07-16T07:19:29;5.90;;;2.92;;
11473;SDS011;5793;52.238;13.438;2023-07-16T07:21:58;4.00;;;3.05;;
11473;SDS011;5793;52.238;13.438;2023-07-16T07:24:26;3.17;;;2.67;;
11473;SDS011;5793;52.238;13.438;2023-07-16T07:26:54;3.10;;;2.50;;
11473;SDS011;5793;52.238;13.438;2023-07-16T07:29:22;6.03;;;3.03;;
11473;SDS011;5793;52.238;13.438;2023-07-16T07:31:51;2.60;;;2.30;;
11473;SDS011;5793;52.238;13.438;2023-07-16T07:34:20;3.50;;;2.67;;
11473;SDS011;5793;52.238;13.438;2023-07-16T07:36:48;7.15;;;2.90;;
11473;SDS011;5793;52.238;13.438;2023-07-16T07:39:15;3.53;;;2.70;;
11473;SDS011;5793;52.238;13.438;2023-07-16T07:41:44;5.20;;;2.70;;
11473;SDS011;5793;52.238;13.438;2023-07-16T07:44:11;4.15;;;2.80;;
11473;SDS011;5793;52.238;13.438;2023-07-16T07:46:39;4.60;;;2.60;;
11473;SDS011;5793;52.238;13.438;2023-07-16T07:49:08;3.17;;;2.80;;
11473;SDS011;5793;52.238;13.438;2023-07-16T07:51:36;4.47;;;2.78;;
11473;SDS011;5793;52.238;13.438;2023-07-16T07:54:04;4.15;;;2.60;;
11473;SDS011;5793;52.238;13.438;2023-07-16T07:56:31;4.75;;;2.42;;
11473;SDS011;5793;52.238;13.438;2023-07-16T07:58:59;2.80;;;2.42;;
11473;SDS011;5793;52.238;13.438;2023-07-16T08:01:27;4.40;;;2.45;;
11473;SDS011;5793;52.238;13.438;2023-07-16T08:03:55;4.15;;;2.28;;
11473;SDS011;5793;52.238;13.438;2023-07-16T08:06:25;6.28;;;2.55;;
11473;SDS011;5793;52.238;13.438;2023-07-16T08:08:53;3.42;;;2.50;;
11473;SDS011;5793;52.238;13.438;2023-07-16T08:11:21;3.28;;;2.45;;
11473;SDS011;5793;52.238;13.438;2023-07-16T08:13:48;3.03;;;2.28;;
11473;SDS011;5793;52.238;13.438;2023-07-16T08:16:16;3.00;;;2.63;;
11473;SDS011;5793;52.238;13.438;2023-07-16T08:18:44;4.10;;;2.45;;
11473;SDS011;5793;52.238;13.438;2023-07-16T08:21:12;3.83;;;2.50;;
11473;SDS011;5793;52.238;13.438;2023-07-16T08:23:48;4.32;;;2.70;;
11473;SDS011;5793;52.238;13.438;2023-07-16T08:26:16;3.05;;;2.33;;
11473;SDS011;5793;52.238;13.438;2023-07-16T08:28:44;2.72;;;2.22;;
11473;SDS011;5793;52.238;13.438;2023-07-16T08:31:12;4.75;;;2.70;;
11473;SDS011;5793;52.238;13.438;2023-07-16T08:33:40;3.75;;;2.42;;
11473;SDS011;5793;52.238;13.438;2023-07-16T08:36:08;2.97;;;2.53;;
11473;SDS011;5793;52.238;13.438;2023-07-16T08:38:37;2.88;;;2.40;;
11473;SDS011;5793;52.238;13.438;2023-07-16T08:41:06;3.78;;;2.60;;
11473;SDS011;5793;52.238;13.438;2023-07-16T08:43:34;3.13;;;2.42;;
11473;SDS011;5793;52.238;13.438;2023-07-16T08:46:02;2.97;;;2.30;;
11473;SDS011;5793;52.238;13.438;2023-07-16T08:48:30;3.65;;;2.50;;
11473;SDS011;5793;52.238;13.438;2023-07-16T08:50:58;4.40;;;2.22;;
11473;SDS011;5793;52.238;13.438;2023-07-16T08:53:29;4.68;;;2.15;;
11473;SDS011;5793;52.238;13.438;2023-07-16T08:55:57;5.25;;;2.50;;
11473;SDS011;5793;52.238;13.438;2023-07-16T08:58:26;3.15;;;2.20;;
11473;SDS011;5793;52.238;13.438;2023-07-16T09:00:55;3.05;;;2.00;;
11473;SDS011;5793;52.238;13.438;2023-07-16T09:03:24;2.45;;;2.15;;
11473;SDS011;5793;52.238;13.438;2023-07-16T09:05:52;4.05;;;2.30;;
11473;SDS011;5793;52.238;13.438;2023-07-16T09:08:21;3.45;;;2.40;;
11473;SDS011;5793;52.238;13.438;2023-07-16T09:10:54;2.38;;;2.17;;
11473;SDS011;5793;52.238;13.438;2023-07-16T09:13:24;3.08;;;2.38;;
11473;SDS011;5793;52.238;13.438;2023-07-16T09:15:55;3.53;;;2.28;;
11473;SDS011;5793;52.238;13.438;2023-07-16T09:18:26;2.13;;;1.80;;
11473;SDS011;5793;52.238;13.438;2023-07-16T09:20:55;3.45;;;2.20;;
11473;SDS011;5793;52.238;13.438;2023-07-16T09:23:24;3.88;;;1.85;;
11473;SDS011;5793;52.238;13.438;2023-07-16T09:25:53;3.78;;;2.03;;
11473;SDS011;5793;52.238;13.438;2023-07-16T09:28:21;3.80;;;2.08;;
11473;SDS011;5793;52.238;13.438;2023-07-16T09:30:49;3.10;;;1.80;;
11473;SDS011;5793;52.238;13.438;2023-07-16T09:33:19;3.97;;;1.73;;
11473;SDS011;5793;52.238;13.438;2023-07-16T09:35:49;4.35;;;2.17;;
11473;SDS011;5793;52.238;13.438;2023-07-16T09:38:17;4.88;;;2.08;;
11473;SDS011;5793;52.238;13.438;2023-07-16T09:40:45;2.65;;;2.10;;
11473;SDS011;5793;52.238;13.438;2023-07-16T09:43:13;4.10;;;2.08;;
11473;SDS011;5793;52.238;13.438;2023-07-16T09:45:41;2.90;;;1.90;;
11473;SDS011;5793;52.238;13.438;2023-07-16T09:48:09;3.45;;;1.80;;
11473;SDS011;5793;52.238;13.438;2023-07-16T09:50:39;3.20;;;1.80;;
11473;SDS011;5793;52.238;13.438;2023-07-16T09:53:11;3.03;;;1.90;;
11473;SDS011;5793;52.238;13.438;2023-07-16T09:55:40;2.90;;;1.92;;
11473;SDS011;5793;52.238;13.438;2023-07-16T09:58:08;2.72;;;1.98;;
11473;SDS011;5793;52.238;13.438;2023-07-16T10:00:38;3.47;;;2.05;;
11473;SDS011;5793;52.238;13.438;2023-07-16T10:03:07;2.88;;;2.10;;
11473;SDS011;5793;52.238;13.438;2023-07-16T10:05:36;2.25;;;1.77;;
11473;SDS011;5793;52.238;13.438;2023-07-16T10:08:15;2.55;;;2.10;;
11473;SDS011;5793;52.238;13.438;2023-07-16T10:10:44;2.53;;;1.75;;
11473;SDS011;5793;52.238;13.438;2023-07-16T10:13:14;3.42;;;1.98;;
11473;SDS011;5793;52.238;13.438;2023-07-16T10:15:52;1.95;;;1.75;;
11473;SDS011;5793;52.238;13.438;2023-07-16T10:18:28;2.58;;;2.10;;
11473;SDS011;5793;52.238;13.438;2023-07-16T10:21:02;3.17;;;1.92;;
11473;SDS011;5793;52.238;13.438;2023-07-16T10:23:40;5.32;;;1.90;;
11473;SDS011;5793;52.238;13.438;2023-07-16T10:26:09;4.30;;;1.92;;
11473;SDS011;5793;52.238;13.438;2023-07-16T10:28:43;2.13;;;1.60;;
11473;SDS011;5793;52.238;13.438;2023-07-16T10:31:17;2.95;;;1.90;;
11473;SDS011;5793;52.238;13.438;2023-07-16T10:33:55;2.47;;;1.70;;
11473;SDS011;5793;52.238;13.438;2023-07-16T10:36:25;4.05;;;2.10;;
11473;SDS011;5793;52.238;13.438;2023-07-16T10:38:54;2.17;;;1.75;;
11473;SDS011;5793;52.238;13.438;2023-07-16T10:41:28;3.67;;;1.80;;
11473;SDS011;5793;52.238;13.438;2023-07-16T10:43:58;3.38;;;2.10;;
11473;SDS011;5793;52.238;13.438;2023-07-16T10:46:26;2.40;;;1.98;;
11473;SDS011;5793;52.238;13.438;2023-07-16T10:48:54;6.10;;;1.95;;
11473;SDS011;5793;52.238;13.438;2023-07-16T10:51:24;2.72;;;1.80;;
11473;SDS011;5793;52.238;13.438;2023-07-16T10:53:56;3.33;;;1.75;;
11473;SDS011;5793;52.238;13.438;2023-07-16T10:56:24;2.13;;;1.92;;
11473;SDS011;5793;52.238;13.438;2023-07-16T10:58:52;4.35;;;2.00;;
11473;SDS011;5793;52.238;13.438;2023-07-16T11:01:20;2.42;;;1.80;;
11473;SDS011;5793;52.238;13.438;2023-07-16T11:03:49;3.17;;;1.80;;
11473;SDS011;5793;52.238;13.438;2023-07-16T11:06:17;2.40;;;1.70;;
11473;SDS011;5793;52.238;13.438;2023-07-16T11:08:46;3.40;;;1.88;;
11473;SDS011;5793;52.238;13.438;2023-07-16T11:11:15;3.85;;;2.00;;
11473;SDS011;5793;52.238;13.438;2023-07-16T11:13:43;6.80;;;2.00;;
11473;SDS011;5793;52.238;13.438;2023-07-16T11:16:15;3.97;;;2.10;;
11473;SDS011;5793;52.238;13.438;2023-07-16T11:18:44;3.35;;;1.85;;
11473;SDS011;5793;52.238;13.438;2023-07-16T11:21:11;3.08;;;2.13;;
11473;SDS011;5793;52.238;13.438;2023-07-16T11:23:39;6.32;;;2.28;;
11473;SDS011;5793;52.238;13.438;2023-07-16T11:26:08;3.95;;;2.00;;
11473;SDS011;5793;52.238;13.438;2023-07-16T11:28:37;4.13;;;1.88;;
11473;SDS011;5793;52.238;13.438;2023-07-16T11:31:13;2.55;;;1.77;;
11473;SDS011;5793;52.238;13.438;2023-07-16T11:33:42;4.07;;;2.15;;
11473;SDS011;5793;52.238;13.438;2023-07-16T11:36:10;6.75;;;2.03;;
11473;SDS011;5793;52.238;13.438;2023-07-16T11:38:39;4.00;;;1.83;;
11473;SDS011;5793;52.238;13.438;2023-07-16T11:41:06;5.03;;;2.22;;
11473;SDS011;5793;52.238;13.438;2023-07-16T11:43:34;3.15;;;1.80;;
11473;SDS011;5793;52.238;13.438;2023-07-16T11:46:05;4.75;;;2.08;;
11473;SDS011;5793;52.238;13.438;2023-07-16T11:48:41;3.47;;;2.10;;
11473;SDS011;5793;52.238;13.438;2023-07-16T11:51:09;3.38;;;1.98;;
11473;SDS011;5793;52.238;13.438;2023-07-16T11:53:37;3.55;;;1.80;;
11473;SDS011;5793;52.238;13.438;2023-07-16T11:56:05;2.60;;;1.98;;
11473;SDS011;5793;52.238;13.438;2023-07-16T11:58:33;3.30;;;2.05;;
11473;SDS011;5793;52.238;13.438;2023-07-16T12:01:01;3.20;;;2.10;;
11473;SDS011;5793;52.238;13.438;2023-07-16T12:03:31;4.60;;;1.85;;
11473;SDS011;5793;52.238;13.438;2023-07-16T12:05:59;3.90;;;1.73;;
11473;SDS011;5793;52.238;13.438;2023-07-16T12:08:26;6.20;;;1.90;;
11473;SDS011;5793;52.238;13.438;2023-07-16T12:10:55;6.93;;;1.90;;
11473;SDS011;5793;52.238;13.438;2023-07-16T12:13:27;7.97;;;2.13;;
11473;SDS011;5793;52.238;13.438;2023-07-16T12:15:55;2.95;;;1.73;;
11473;SDS011;5793;52.238;13.438;2023-07-16T12:18:23;3.72;;;2.00;;
11473;SDS011;5793;52.238;13.438;2023-07-16T12:20:52;2.70;;;2.00;;
11473;SDS011;5793;52.238;13.438;2023-07-16T12:23:20;3.58;;;1.83;;
11473;SDS011;5793;52.238;13.438;2023-07-16T12:25:48;3.22;;;2.00;;
11473;SDS011;5793;52.238;13.438;2023-07-16T12:28:17;3.58;;;1.88;;
11473;SDS011;5793;52.238;13.438;2023-07-16T12:30:44;3.53;;;1.95;;
11473;SDS011;5793;52.238;13.438;2023-07-16T12:33:12;4.20;;;1.92;;
11473;SDS011;5793;52.238;13.438;2023-07-16T12:35:40;3.08;;;1.95;;
11473;SDS011;5793;52.238;13.438;2023-07-16T12:38:09;3.13;;;2.03;;
11473;SDS011;5793;52.238;13.438;2023-07-16T12:40:37;3.15;;;1.98;;
11473;SDS011;5793;52.238;13.438;2023-07-16T12:43:06;2.92;;;1.75;;
11473;SDS011;5793;52.238;13.438;2023-07-16T12:45:34;2.28;;;1.85;;
11473;SDS011;5793;52.238;13.438;2023-07-16T12:48:02;2.83;;;1.75;;
11473;SDS011;5793;52.238;13.438;2023-07-16T12:50:30;2.08;;;1.67;;
11473;SDS011;5793;52.238;13.438;2023-07-16T12:52:58;3.85;;;2.03;;
11473;SDS011;5793;52.238;13.438;2023-07-16T12:55:27;3.40;;;1.77;;
11473;SDS011;5793;52.238;13.438;2023-07-16T12:57:57;3.67;;;1.90;;
11473;SDS011;5793;52.238;13.438;2023-07-16T13:00:25;5.88;;;2.08;;
11473;SDS011;5793;52.238;13.438;2023-07-16T13:02:53;2.97;;;1.70;;
11473;SDS011;5793;52.238;13.438;2023-07-16T13:05:21;3.10;;;1.90;;
11473;SDS011;5793;52.238;13.438;2023-07-16T13:07:49;5.10;;;2.30;;
11473;SDS011;5793;52.238;13.438;2023-07-16T13:10:17;3.15;;;1.85;;
11473;SDS011;5793;52.238;13.438;2023-07-16T13:12:50;4.68;;;1.90;;
11473;SDS011;5793;52.238;13.438;2023-07-16T13:15:18;3.45;;;1.77;;
11473;SDS011;5793;52.238;13.438;2023-07-16T13:17:46;6.45;;;1.90;;
11473;SDS011;5793;52.238;13.438;2023-07-16T13:20:15;3.33;;;1.80;;
11473;SDS011;5793;52.238;13.438;2023-07-16T13:22:44;4.28;;;1.85;;
11473;SDS011;5793;52.238;13.438;2023-07-16T13:25:12;3.60;;;1.50;;
11473;SDS011;5793;52.238;13.438;2023-07-16T13:27:40;3.28;;;1.85;;
11473;SDS011;5793;52.238;13.438;2023-07-16T13:30:10;3.55;;;1.73;;
11473;SDS011;5793;52.238;13.438;2023-07-16T13:32:39;3.38;;;1.60;;
11473;SDS011;5793;52.238;13.438;2023-07-16T13:35:08;2.15;;;1.70;;
11473;SDS011;5793;52.238;13.438;2023-07-16T13:37:35;4.35;;;1.70;;
11473;SDS011;5793;52.238;13.438;2023-07-16T13:40:04;3.08;;;1.70;;
11473;SDS011;5793;52.238;13.438;2023-07-16T13:42:33;4.60;;;1.90;;
11473;SDS011;5793;52.238;13.438;2023-07-16T13:45:00;3.75;;;1.95;;
11473;SDS011;5793;52.238;13.438;2023-07-16T13:47:30;5.82;;;1.70;;
11473;SDS011;5793;52.238;13.438;2023-07-16T13:49:58;2.92;;;1.70;;
11473;SDS011;5793;52.238;13.438;2023-07-16T13:52:25;2.65;;;1.83;;
11473;SDS011;5793;52.238;13.438;2023-07-16T13:54:53;2.75;;;1.73;;
11473;SDS011;5793;52.238;13.438;2023-07-16T13:57:21;3.90;;;1.98;;
11473;SDS011;5793;52.238;13.438;2023-07-16T13:59:49;2.78;;;1.77;;
11473;SDS011;5793;52.238;13.438;2023-07-16T14:02:17;3.72;;;1.83;;
11473;SDS011;5793;52.238;13.438;2023-07-16T14:04:46;3.70;;;1.98;;
11473;SDS011;5793;52.238;13.438;2023-07-16T14:07:14;3.42;;;1.90;;
11473;SDS011;5793;52.238;13.438;2023-07-16T14:09:42;5.30;;;2.08;;
11473;SDS011;5793;52.238;13.438;2023-07-16T14:12:10;3.75;;;1.88;;
11473;SDS011;5793;52.238;13.438;2023-07-16T14:14:38;5.63;;;1.95;;
11473;SDS011;5793;52.238;13.438;2023-07-16T14:17:06;3.90;;;1.90;;
11473;SDS011;5793;52.238;13.438;2023-07-16T14:19:35;3.95;;;2.00;;
11473;SDS011;5793;52.238;13.438;2023-07-16T14:22:04;4.82;;;1.80;;
11473;SDS011;5793;52.238;13.438;2023-07-16T14:24:32;4.22;;;1.70;;
11473;SDS011;5793;52.238;13.438;2023-07-16T14:27:00;5.50;;;1.88;;
11473;SDS011;5793;52.238;13.438;2023-07-16T14:29:28;3.47;;;1.60;;
11473;SDS011;5793;52.238;13.438;2023-07-16T14:31:56;3.05;;;1.70;;
11473;SDS011;5793;52.238;13.438;2023-07-16T14:34:25;3.72;;;1.90;;
11473;SDS011;5793;52.238;13.438;2023-07-16T14:36:53;4.30;;;1.73;;
11473;SDS011;5793;52.238;13.438;2023-07-16T14:39:22;3.78;;;2.10;;
11473;SDS011;5793;52.238;13.438;2023-07-16T14:41:50;2.53;;;1.90;;
11473;SDS011;5793;52.238;13.438;2023-07-16T14:44:18;3.72;;;2.00;;
11473;SDS011;5793;52.238;13.438;2023-07-16T14:46:46;4.78;;;1.88;;
11473;SDS011;5793;52.238;13.438;2023-07-16T14:49:14;4.25;;;2.00;;
11473;SDS011;5793;52.238;13.438;2023-07-16T14:51:42;3.38;;;2.10;;
11473;SDS011;5793;52.238;13.438;2023-07-16T14:54:10;5.20;;;2.25;;
11473;SDS011;5793;52.238;13.438;2023-07-16T14:56:39;3.38;;;1.80;;